sensor_id;sensor_type;location;lat;lon;timestamp;P1;durP1;ratioP1;P2;durP2;ratioP2
6358;SDS011;3212;51.460;11.868;2024-01-27T00:02:50;4.00;;;1.37;;
6358;SDS011;3212;51.460;11.868;2024-01-27T00:06:12;3.00;;;1.70;;
6358;SDS011;3212;51.460;11.868;2024-01-27T00:09:35;4.20;;;1.63;;
6358;SDS011;3212;51.460;11.868;2024-01-27T00:12:57;3.77;;;1.33;;
6358;SDS011;3212;51.460;11.868;2024-01-27T00:16:20;6.90;;;1.70;;
6358;SDS011;3212;51.460;11.868;2024-01-27T00:19:42;3.23;;;1.50;;
6358;SDS011;3212;51.460;11.868;2024-01-27T00:23:04;3.10;;;2.03;;
6358;SDS011;3212;51.460;11.868;2024-01-27T00:26:28;6.00;;;1.20;;
6358;SDS011;3212;51.460;11.868;2024-01-27T00:29:52;4.93;;;1.57;;
6358;SDS011;3212;51.460;11.868;2024-01-27T00:33:14;4.10;;;1.53;;
6358;SDS011;3212;51.460;11.868;2024-01-27T00:36:38;6.97;;;2.00;;
6358;SDS011;3212;51.460;11.868;2024-01-27T00:40:00;5.10;;;1.20;;
6358;SDS011;3212;51.460;11.868;2024-01-27T00:43:23;3.70;;;1.70;;
6358;SDS011;3212;51.460;11.868;2024-01-27T00:46:45;5.30;;;1.53;;
6358;SDS011;3212;51.460;11.868;2024-01-27T00:50:08;12.07;;;1.90;;
6358;SDS011;3212;51.460;11.868;2024-01-27T00:53:31;6.43;;;2.00;;
6358;SDS011;3212;51.460;11.868;2024-01-27T00:56:54;7.10;;;1.83;;
6358;SDS011;3212;51.460;11.868;2024-01-27T01:00:17;4.93;;;1.33;;
6358;SDS011;3212;51.460;11.868;2024-01-27T01:03:40;8.90;;;1.60;;
6358;SDS011;3212;51.460;11.868;2024-01-27T01:07:03;5.73;;;1.23;;
6358;SDS011;3212;51.460;11.868;2024-01-27T01:10:26;7.60;;;1.40;;
6358;SDS011;3212;51.460;11.868;2024-01-27T01:13:48;3.27;;;1.20;;
6358;SDS011;3212;51.460;11.868;2024-01-27T01:17:12;10.90;;;1.40;;
6358;SDS011;3212;51.460;11.868;2024-01-27T01:20:36;5.00;;;1.30;;
6358;SDS011;3212;51.460;11.868;2024-01-27T01:23:59;4.83;;;1.37;;
6358;SDS011;3212;51.460;11.868;2024-01-27T01:27:22;10.50;;;1.70;;
6358;SDS011;3212;51.460;11.868;2024-01-27T01:30:45;3.13;;;1.40;;
6358;SDS011;3212;51.460;11.868;2024-01-27T01:34:08;8.80;;;1.60;;
6358;SDS011;3212;51.460;11.868;2024-01-27T01:37:31;4.55;;;1.30;;
6358;SDS011;3212;51.460;11.868;2024-01-27T01:40:53;9.47;;;1.67;;
6358;SDS011;3212;51.460;11.868;2024-01-27T01:44:15;7.80;;;2.00;;
6358;SDS011;3212;51.460;11.868;2024-01-27T01:47:38;11.43;;;3.20;;
6358;SDS011;3212;51.460;11.868;2024-01-27T01:51:01;13.30;;;3.57;;
6358;SDS011;3212;51.460;11.868;2024-01-27T01:54:24;8.73;;;2.87;;
6358;SDS011;3212;51.460;11.868;2024-01-27T01:57:47;8.50;;;2.37;;
6358;SDS011;3212;51.460;11.868;2024-01-27T02:01:10;13.10;;;2.10;;
6358;SDS011;3212;51.460;11.868;2024-01-27T02:04:39;4.20;;;1.50;;
6358;SDS011;3212;51.460;11.868;2024-01-27T02:08:01;7.00;;;1.33;;
6358;SDS011;3212;51.460;11.868;2024-01-27T02:11:23;6.27;;;1.60;;
6358;SDS011;3212;51.460;11.868;2024-01-27T02:14:46;5.37;;;1.53;;
6358;SDS011;3212;51.460;11.868;2024-01-27T02:18:09;8.53;;;2.10;;
6358;SDS011;3212;51.460;11.868;2024-01-27T02:21:31;4.47;;;1.37;;
6358;SDS011;3212;51.460;11.868;2024-01-27T02:24:54;10.27;;;1.90;;
6358;SDS011;3212;51.460;11.868;2024-01-27T02:28:16;7.80;;;1.43;;
6358;SDS011;3212;51.460;11.868;2024-01-27T02:31:39;7.47;;;1.70;;
6358;SDS011;3212;51.460;11.868;2024-01-27T02:35:03;6.90;;;2.03;;
6358;SDS011;3212;51.460;11.868;2024-01-27T02:38:26;7.23;;;1.37;;
6358;SDS011;3212;51.460;11.868;2024-01-27T02:41:48;9.43;;;1.80;;
6358;SDS011;3212;51.460;11.868;2024-01-27T02:45:11;7.17;;;1.30;;
6358;SDS011;3212;51.460;11.868;2024-01-27T02:48:33;3.30;;;1.40;;
6358;SDS011;3212;51.460;11.868;2024-01-27T02:51:57;6.53;;;1.40;;
6358;SDS011;3212;51.460;11.868;2024-01-27T02:55:20;5.13;;;1.43;;
6358;SDS011;3212;51.460;11.868;2024-01-27T02:58:42;9.93;;;1.50;;
6358;SDS011;3212;51.460;11.868;2024-01-27T03:02:06;5.07;;;1.73;;
6358;SDS011;3212;51.460;11.868;2024-01-27T03:05:29;5.80;;;1.40;;
6358;SDS011;3212;51.460;11.868;2024-01-27T03:08:52;7.93;;;1.40;;
6358;SDS011;3212;51.460;11.868;2024-01-27T03:12:16;3.70;;;1.23;;
6358;SDS011;3212;51.460;11.868;2024-01-27T03:15:38;9.10;;;1.60;;
6358;SDS011;3212;51.460;11.868;2024-01-27T03:19:05;8.77;;;1.60;;
6358;SDS011;3212;51.460;11.868;2024-01-27T03:22:27;4.97;;;1.37;;
6358;SDS011;3212;51.460;11.868;2024-01-27T03:25:51;7.90;;;1.53;;
6358;SDS011;3212;51.460;11.868;2024-01-27T03:29:13;6.10;;;1.53;;
6358;SDS011;3212;51.460;11.868;2024-01-27T03:32:36;8.57;;;2.17;;
6358;SDS011;3212;51.460;11.868;2024-01-27T03:35:59;10.87;;;1.97;;
6358;SDS011;3212;51.460;11.868;2024-01-27T03:39:21;4.90;;;1.47;;
6358;SDS011;3212;51.460;11.868;2024-01-27T03:42:44;10.40;;;1.93;;
6358;SDS011;3212;51.460;11.868;2024-01-27T03:46:06;10.10;;;2.30;;
6358;SDS011;3212;51.460;11.868;2024-01-27T03:49:29;11.03;;;2.03;;
6358;SDS011;3212;51.460;11.868;2024-01-27T03:52:52;9.20;;;1.70;;
6358;SDS011;3212;51.460;11.868;2024-01-27T03:56:14;3.97;;;1.47;;
6358;SDS011;3212;51.460;11.868;2024-01-27T03:59:40;5.30;;;1.53;;
6358;SDS011;3212;51.460;11.868;2024-01-27T04:03:00;9.30;;;1.60;;
6358;SDS011;3212;51.460;11.868;2024-01-27T04:06:24;14.53;;;1.40;;
6358;SDS011;3212;51.460;11.868;2024-01-27T04:09:46;7.20;;;1.50;;
6358;SDS011;3212;51.460;11.868;2024-01-27T04:13:08;7.20;;;2.13;;
6358;SDS011;3212;51.460;11.868;2024-01-27T04:16:32;7.70;;;2.40;;
6358;SDS011;3212;51.460;11.868;2024-01-27T04:19:55;9.40;;;2.00;;
6358;SDS011;3212;51.460;11.868;2024-01-27T04:23:17;10.50;;;2.00;;
6358;SDS011;3212;51.460;11.868;2024-01-27T04:26:41;15.40;;;1.47;;
6358;SDS011;3212;51.460;11.868;2024-01-27T04:30:04;6.93;;;1.87;;
6358;SDS011;3212;51.460;11.868;2024-01-27T04:33:28;6.35;;;1.70;;
6358;SDS011;3212;51.460;11.868;2024-01-27T04:36:50;5.20;;;1.50;;
6358;SDS011;3212;51.460;11.868;2024-01-27T04:40:14;2.30;;;1.17;;
6358;SDS011;3212;51.460;11.868;2024-01-27T04:43:36;8.10;;;1.73;;
6358;SDS011;3212;51.460;11.868;2024-01-27T04:46:59;9.90;;;1.97;;
6358;SDS011;3212;51.460;11.868;2024-01-27T04:50:22;7.70;;;1.77;;
6358;SDS011;3212;51.460;11.868;2024-01-27T04:53:45;9.03;;;1.70;;
6358;SDS011;3212;51.460;11.868;2024-01-27T04:57:07;8.47;;;1.67;;
6358;SDS011;3212;51.460;11.868;2024-01-27T05:00:30;7.33;;;1.80;;
6358;SDS011;3212;51.460;11.868;2024-01-27T05:03:52;10.03;;;2.00;;
6358;SDS011;3212;51.460;11.868;2024-01-27T05:07:15;7.13;;;1.90;;
6358;SDS011;3212;51.460;11.868;2024-01-27T05:10:38;6.77;;;1.60;;
6358;SDS011;3212;51.460;11.868;2024-01-27T05:14:00;7.63;;;1.50;;
6358;SDS011;3212;51.460;11.868;2024-01-27T05:17:23;9.53;;;1.57;;
6358;SDS011;3212;51.460;11.868;2024-01-27T05:20:45;9.20;;;1.80;;
6358;SDS011;3212;51.460;11.868;2024-01-27T05:24:08;8.00;;;1.90;;
6358;SDS011;3212;51.460;11.868;2024-01-27T05:27:30;4.07;;;1.63;;
6358;SDS011;3212;51.460;11.868;2024-01-27T05:30:53;6.07;;;1.40;;
6358;SDS011;3212;51.460;11.868;2024-01-27T05:34:17;11.80;;;2.93;;
6358;SDS011;3212;51.460;11.868;2024-01-27T05:37:39;5.17;;;1.50;;
6358;SDS011;3212;51.460;11.868;2024-01-27T05:41:01;9.85;;;2.55;;
6358;SDS011;3212;51.460;11.868;2024-01-27T05:44:24;6.17;;;1.60;;
6358;SDS011;3212;51.460;11.868;2024-01-27T05:47:47;2.83;;;1.53;;
6358;SDS011;3212;51.460;11.868;2024-01-27T05:51:10;6.50;;;2.13;;
6358;SDS011;3212;51.460;11.868;2024-01-27T05:54:33;6.97;;;1.80;;
6358;SDS011;3212;51.460;11.868;2024-01-27T05:57:55;10.10;;;1.80;;
6358;SDS011;3212;51.460;11.868;2024-01-27T06:01:19;12.13;;;2.23;;
6358;SDS011;3212;51.460;11.868;2024-01-27T06:04:41;6.20;;;1.60;;
6358;SDS011;3212;51.460;11.868;2024-01-27T06:08:04;8.63;;;2.00;;
6358;SDS011;3212;51.460;11.868;2024-01-27T06:11:27;8.37;;;2.10;;
6358;SDS011;3212;51.460;11.868;2024-01-27T06:14:51;11.13;;;2.60;;
6358;SDS011;3212;51.460;11.868;2024-01-27T06:18:14;12.23;;;2.00;;
6358;SDS011;3212;51.460;11.868;2024-01-27T06:21:37;12.00;;;2.33;;
6358;SDS011;3212;51.460;11.868;2024-01-27T06:25:00;7.87;;;2.10;;
6358;SDS011;3212;51.460;11.868;2024-01-27T06:28:23;10.60;;;2.40;;
6358;SDS011;3212;51.460;11.868;2024-01-27T06:31:46;6.93;;;2.00;;
6358;SDS011;3212;51.460;11.868;2024-01-27T06:35:08;4.27;;;1.80;;
6358;SDS011;3212;51.460;11.868;2024-01-27T06:38:31;12.03;;;1.97;;
6358;SDS011;3212;51.460;11.868;2024-01-27T06:41:54;8.23;;;2.67;;
6358;SDS011;3212;51.460;11.868;2024-01-27T06:45:16;15.17;;;3.30;;
6358;SDS011;3212;51.460;11.868;2024-01-27T06:48:39;14.67;;;2.40;;
6358;SDS011;3212;51.460;11.868;2024-01-27T06:52:02;8.23;;;1.90;;
6358;SDS011;3212;51.460;11.868;2024-01-27T06:55:26;8.87;;;2.57;;
6358;SDS011;3212;51.460;11.868;2024-01-27T06:58:48;13.83;;;2.40;;
6358;SDS011;3212;51.460;11.868;2024-01-27T07:02:11;13.17;;;2.20;;
6358;SDS011;3212;51.460;11.868;2024-01-27T07:05:33;9.57;;;2.50;;
6358;SDS011;3212;51.460;11.868;2024-01-27T07:08:57;10.70;;;2.40;;
6358;SDS011;3212;51.460;11.868;2024-01-27T07:12:19;13.10;;;2.90;;
6358;SDS011;3212;51.460;11.868;2024-01-27T07:15:42;9.13;;;2.30;;
6358;SDS011;3212;51.460;11.868;2024-01-27T07:19:04;6.30;;;2.40;;
6358;SDS011;3212;51.460;11.868;2024-01-27T07:22:28;10.03;;;2.30;;
6358;SDS011;3212;51.460;11.868;2024-01-27T07:25:50;15.47;;;3.90;;
6358;SDS011;3212;51.460;11.868;2024-01-27T07:29:12;13.40;;;3.27;;
6358;SDS011;3212;51.460;11.868;2024-01-27T07:32:35;10.20;;;2.80;;
6358;SDS011;3212;51.460;11.868;2024-01-27T07:35:58;12.90;;;2.90;;
6358;SDS011;3212;51.460;11.868;2024-01-27T07:39:21;8.37;;;3.33;;
6358;SDS011;3212;51.460;11.868;2024-01-27T07:42:43;11.33;;;3.07;;
6358;SDS011;3212;51.460;11.868;2024-01-27T07:46:07;12.70;;;3.28;;
6358;SDS011;3212;51.460;11.868;2024-01-27T07:49:29;7.00;;;2.90;;
6358;SDS011;3212;51.460;11.868;2024-01-27T07:52:52;8.20;;;3.50;;
6358;SDS011;3212;51.460;11.868;2024-01-27T07:56:14;9.20;;;2.93;;
6358;SDS011;3212;51.460;11.868;2024-01-27T07:59:37;10.70;;;3.50;;
6358;SDS011;3212;51.460;11.868;2024-01-27T08:02:59;10.23;;;3.40;;
6358;SDS011;3212;51.460;11.868;2024-01-27T08:06:27;13.63;;;3.40;;
6358;SDS011;3212;51.460;11.868;2024-01-27T08:09:49;10.17;;;3.57;;
6358;SDS011;3212;51.460;11.868;2024-01-27T08:13:11;11.93;;;3.37;;
6358;SDS011;3212;51.460;11.868;2024-01-27T08:16:34;13.53;;;4.47;;
6358;SDS011;3212;51.460;11.868;2024-01-27T08:19:56;10.83;;;4.80;;
6358;SDS011;3212;51.460;11.868;2024-01-27T08:23:19;8.23;;;3.80;;
6358;SDS011;3212;51.460;11.868;2024-01-27T08:26:42;13.73;;;3.67;;
6358;SDS011;3212;51.460;11.868;2024-01-27T08:30:04;14.17;;;3.50;;
6358;SDS011;3212;51.460;11.868;2024-01-27T08:33:27;11.40;;;3.70;;
6358;SDS011;3212;51.460;11.868;2024-01-27T08:36:49;11.10;;;4.20;;
6358;SDS011;3212;51.460;11.868;2024-01-27T08:40:12;10.60;;;4.20;;
6358;SDS011;3212;51.460;11.868;2024-01-27T08:43:34;19.77;;;4.90;;
6358;SDS011;3212;51.460;11.868;2024-01-27T08:46:57;24.10;;;4.27;;
6358;SDS011;3212;51.460;11.868;2024-01-27T08:50:19;11.27;;;4.60;;
6358;SDS011;3212;51.460;11.868;2024-01-27T08:53:42;10.87;;;3.60;;
6358;SDS011;3212;51.460;11.868;2024-01-27T08:57:05;14.87;;;4.40;;
6358;SDS011;3212;51.460;11.868;2024-01-27T09:00:28;12.57;;;4.47;;
6358;SDS011;3212;51.460;11.868;2024-01-27T09:03:51;13.73;;;4.10;;
6358;SDS011;3212;51.460;11.868;2024-01-27T09:07:14;14.63;;;4.10;;
6358;SDS011;3212;51.460;11.868;2024-01-27T09:10:37;11.95;;;4.22;;
6358;SDS011;3212;51.460;11.868;2024-01-27T09:14:00;13.20;;;5.10;;
6358;SDS011;3212;51.460;11.868;2024-01-27T09:17:22;9.60;;;3.97;;
6358;SDS011;3212;51.460;11.868;2024-01-27T09:20:44;13.70;;;4.67;;
6358;SDS011;3212;51.460;11.868;2024-01-27T09:24:07;13.23;;;5.00;;
6358;SDS011;3212;51.460;11.868;2024-01-27T09:27:30;17.63;;;5.10;;
6358;SDS011;3212;51.460;11.868;2024-01-27T09:30:53;17.75;;;5.03;;
6358;SDS011;3212;51.460;11.868;2024-01-27T09:34:16;13.53;;;5.00;;
6358;SDS011;3212;51.460;11.868;2024-01-27T09:37:38;12.30;;;5.73;;
6358;SDS011;3212;51.460;11.868;2024-01-27T09:41:01;12.53;;;5.30;;
6358;SDS011;3212;51.460;11.868;2024-01-27T09:44:24;14.77;;;7.27;;
6358;SDS011;3212;51.460;11.868;2024-01-27T09:47:48;8.70;;;5.37;;
6358;SDS011;3212;51.460;11.868;2024-01-27T09:51:11;19.73;;;5.80;;
6358;SDS011;3212;51.460;11.868;2024-01-27T09:54:34;11.30;;;5.67;;
6358;SDS011;3212;51.460;11.868;2024-01-27T09:57:56;12.30;;;5.47;;
6358;SDS011;3212;51.460;11.868;2024-01-27T10:01:19;15.63;;;5.90;;
6358;SDS011;3212;51.460;11.868;2024-01-27T10:04:42;13.43;;;5.63;;
6358;SDS011;3212;51.460;11.868;2024-01-27T10:08:06;12.87;;;5.73;;
6358;SDS011;3212;51.460;11.868;2024-01-27T10:11:29;18.83;;;5.70;;
6358;SDS011;3212;51.460;11.868;2024-01-27T10:14:52;12.37;;;5.83;;
6358;SDS011;3212;51.460;11.868;2024-01-27T10:18:14;11.70;;;5.27;;
6358;SDS011;3212;51.460;11.868;2024-01-27T10:21:37;10.00;;;5.17;;
6358;SDS011;3212;51.460;11.868;2024-01-27T10:24:59;10.77;;;5.30;;
6358;SDS011;3212;51.460;11.868;2024-01-27T10:28:22;15.90;;;6.07;;
6358;SDS011;3212;51.460;11.868;2024-01-27T10:31:45;9.57;;;4.83;;
6358;SDS011;3212;51.460;11.868;2024-01-27T10:35:07;20.83;;;5.97;;
6358;SDS011;3212;51.460;11.868;2024-01-27T10:38:35;12.23;;;4.80;;
6358;SDS011;3212;51.460;11.868;2024-01-27T10:41:59;18.23;;;5.47;;
6358;SDS011;3212;51.460;11.868;2024-01-27T10:45:22;11.47;;;4.70;;
6358;SDS011;3212;51.460;11.868;2024-01-27T10:48:45;13.32;;;5.28;;
6358;SDS011;3212;51.460;11.868;2024-01-27T10:52:08;10.73;;;5.00;;
6358;SDS011;3212;51.460;11.868;2024-01-27T10:55:30;11.03;;;4.63;;
6358;SDS011;3212;51.460;11.868;2024-01-27T10:58:55;12.87;;;5.10;;
6358;SDS011;3212;51.460;11.868;2024-01-27T11:02:17;12.47;;;5.00;;
6358;SDS011;3212;51.460;11.868;2024-01-27T11:05:40;12.17;;;4.77;;
6358;SDS011;3212;51.460;11.868;2024-01-27T11:09:03;12.63;;;4.97;;
6358;SDS011;3212;51.460;11.868;2024-01-27T11:12:25;8.67;;;4.10;;
6358;SDS011;3212;51.460;11.868;2024-01-27T11:15:50;11.63;;;4.43;;
6358;SDS011;3212;51.460;11.868;2024-01-27T11:19:12;18.63;;;5.03;;
6358;SDS011;3212;51.460;11.868;2024-01-27T11:22:35;11.40;;;4.43;;
6358;SDS011;3212;51.460;11.868;2024-01-27T11:26:04;10.37;;;4.13;;
6358;SDS011;3212;51.460;11.868;2024-01-27T11:29:28;9.60;;;3.40;;
6358;SDS011;3212;51.460;11.868;2024-01-27T11:32:51;17.37;;;4.00;;
6358;SDS011;3212;51.460;11.868;2024-01-27T11:36:19;12.07;;;4.47;;
6358;SDS011;3212;51.460;11.868;2024-01-27T11:39:46;14.97;;;3.87;;
6358;SDS011;3212;51.460;11.868;2024-01-27T11:43:11;10.67;;;3.47;;
6358;SDS011;3212;51.460;11.868;2024-01-27T11:46:32;9.07;;;3.13;;
6358;SDS011;3212;51.460;11.868;2024-01-27T11:49:55;10.80;;;3.87;;
6358;SDS011;3212;51.460;11.868;2024-01-27T11:53:17;8.93;;;2.87;;
6358;SDS011;3212;51.460;11.868;2024-01-27T11:56:41;6.20;;;3.00;;
6358;SDS011;3212;51.460;11.868;2024-01-27T12:00:03;7.40;;;2.80;;
6358;SDS011;3212;51.460;11.868;2024-01-27T12:03:26;12.83;;;3.80;;
6358;SDS011;3212;51.460;11.868;2024-01-27T12:06:49;7.17;;;3.00;;
6358;SDS011;3212;51.460;11.868;2024-01-27T12:10:12;4.30;;;2.30;;
6358;SDS011;3212;51.460;11.868;2024-01-27T12:13:35;5.93;;;2.50;;
6358;SDS011;3212;51.460;11.868;2024-01-27T12:16:58;8.53;;;3.10;;
6358;SDS011;3212;51.460;11.868;2024-01-27T12:20:22;6.95;;;2.90;;
6358;SDS011;3212;51.460;11.868;2024-01-27T12:23:49;10.10;;;2.60;;
6358;SDS011;3212;51.460;11.868;2024-01-27T12:27:10;9.17;;;3.10;;
6358;SDS011;3212;51.460;11.868;2024-01-27T12:30:32;7.13;;;2.40;;
6358;SDS011;3212;51.460;11.868;2024-01-27T12:33:56;13.40;;;3.10;;
6358;SDS011;3212;51.460;11.868;2024-01-27T12:37:18;7.57;;;3.20;;
6358;SDS011;3212;51.460;11.868;2024-01-27T12:40:40;7.33;;;2.67;;
6358;SDS011;3212;51.460;11.868;2024-01-27T12:44:03;9.93;;;3.37;;
6358;SDS011;3212;51.460;11.868;2024-01-27T12:47:26;11.60;;;3.00;;
6358;SDS011;3212;51.460;11.868;2024-01-27T12:50:49;7.90;;;2.60;;
6358;SDS011;3212;51.460;11.868;2024-01-27T12:54:13;9.13;;;2.60;;
6358;SDS011;3212;51.460;11.868;2024-01-27T12:57:35;15.37;;;2.70;;
6358;SDS011;3212;51.460;11.868;2024-01-27T13:00:58;8.50;;;2.73;;
6358;SDS011;3212;51.460;11.868;2024-01-27T13:04:20;6.43;;;2.07;;
6358;SDS011;3212;51.460;11.868;2024-01-27T13:07:43;10.13;;;2.90;;
6358;SDS011;3212;51.460;11.868;2024-01-27T13:11:06;8.63;;;2.40;;
6358;SDS011;3212;51.460;11.868;2024-01-27T13:14:28;7.90;;;2.50;;
6358;SDS011;3212;51.460;11.868;2024-01-27T13:17:51;9.30;;;1.87;;
6358;SDS011;3212;51.460;11.868;2024-01-27T13:21:14;9.30;;;2.50;;
6358;SDS011;3212;51.460;11.868;2024-01-27T13:24:37;5.17;;;1.97;;
6358;SDS011;3212;51.460;11.868;2024-01-27T13:27:59;4.50;;;2.07;;
6358;SDS011;3212;51.460;11.868;2024-01-27T13:31:22;11.10;;;1.90;;
6358;SDS011;3212;51.460;11.868;2024-01-27T13:34:45;6.53;;;2.40;;
6358;SDS011;3212;51.460;11.868;2024-01-27T13:38:07;6.20;;;2.20;;
6358;SDS011;3212;51.460;11.868;2024-01-27T13:41:30;12.50;;;2.37;;
6358;SDS011;3212;51.460;11.868;2024-01-27T13:44:52;13.77;;;3.53;;
6358;SDS011;3212;51.460;11.868;2024-01-27T13:48:14;6.20;;;1.63;;
6358;SDS011;3212;51.460;11.868;2024-01-27T13:51:38;7.47;;;2.17;;
6358;SDS011;3212;51.460;11.868;2024-01-27T13:55:00;12.80;;;4.50;;
6358;SDS011;3212;51.460;11.868;2024-01-27T13:58:22;9.30;;;4.00;;
6358;SDS011;3212;51.460;11.868;2024-01-27T14:01:46;9.07;;;3.20;;
6358;SDS011;3212;51.460;11.868;2024-01-27T14:05:08;15.53;;;5.60;;
6358;SDS011;3212;51.460;11.868;2024-01-27T14:08:30;19.47;;;3.90;;
6358;SDS011;3212;51.460;11.868;2024-01-27T14:11:53;9.87;;;2.67;;
6358;SDS011;3212;51.460;11.868;2024-01-27T14:15:15;8.60;;;2.73;;
6358;SDS011;3212;51.460;11.868;2024-01-27T14:18:38;10.10;;;2.40;;
6358;SDS011;3212;51.460;11.868;2024-01-27T14:22:01;8.57;;;2.80;;
6358;SDS011;3212;51.460;11.868;2024-01-27T14:25:23;5.93;;;2.67;;
6358;SDS011;3212;51.460;11.868;2024-01-27T14:28:46;8.63;;;2.33;;
6358;SDS011;3212;51.460;11.868;2024-01-27T14:32:09;8.87;;;2.13;;
6358;SDS011;3212;51.460;11.868;2024-01-27T14:35:31;5.63;;;2.10;;
6358;SDS011;3212;51.460;11.868;2024-01-27T14:38:54;9.90;;;2.07;;
6358;SDS011;3212;51.460;11.868;2024-01-27T14:42:17;6.62;;;2.05;;
6358;SDS011;3212;51.460;11.868;2024-01-27T14:45:39;9.63;;;1.83;;
6358;SDS011;3212;51.460;11.868;2024-01-27T14:49:03;9.60;;;2.10;;
6358;SDS011;3212;51.460;11.868;2024-01-27T14:52:26;8.87;;;2.23;;
6358;SDS011;3212;51.460;11.868;2024-01-27T14:55:49;6.77;;;1.90;;
6358;SDS011;3212;51.460;11.868;2024-01-27T14:59:11;9.80;;;2.63;;
6358;SDS011;3212;51.460;11.868;2024-01-27T15:02:33;6.50;;;2.37;;
6358;SDS011;3212;51.460;11.868;2024-01-27T15:05:56;6.87;;;2.43;;
6358;SDS011;3212;51.460;11.868;2024-01-27T15:09:18;6.57;;;2.10;;
6358;SDS011;3212;51.460;11.868;2024-01-27T15:12:41;8.93;;;1.80;;
6358;SDS011;3212;51.460;11.868;2024-01-27T15:16:04;5.03;;;1.93;;
6358;SDS011;3212;51.460;11.868;2024-01-27T15:19:27;9.73;;;1.77;;
6358;SDS011;3212;51.460;11.868;2024-01-27T15:22:49;7.67;;;1.90;;
6358;SDS011;3212;51.460;11.868;2024-01-27T15:26:12;6.90;;;1.90;;
6358;SDS011;3212;51.460;11.868;2024-01-27T15:29:35;3.23;;;1.60;;
6358;SDS011;3212;51.460;11.868;2024-01-27T15:32:58;5.70;;;1.53;;
6358;SDS011;3212;51.460;11.868;2024-01-27T15:36:20;6.80;;;1.63;;
6358;SDS011;3212;51.460;11.868;2024-01-27T15:39:43;4.40;;;2.17;;
6358;SDS011;3212;51.460;11.868;2024-01-27T15:43:06;10.47;;;2.50;;
6358;SDS011;3212;51.460;11.868;2024-01-27T15:46:29;8.77;;;2.20;;
6358;SDS011;3212;51.460;11.868;2024-01-27T15:49:51;9.87;;;2.83;;
6358;SDS011;3212;51.460;11.868;2024-01-27T15:53:14;5.40;;;1.80;;
6358;SDS011;3212;51.460;11.868;2024-01-27T15:56:37;15.90;;;2.60;;
6358;SDS011;3212;51.460;11.868;2024-01-27T15:59:59;9.67;;;2.10;;
6358;SDS011;3212;51.460;11.868;2024-01-27T16:03:22;10.13;;;2.37;;
6358;SDS011;3212;51.460;11.868;2024-01-27T16:06:45;4.70;;;2.00;;
6358;SDS011;3212;51.460;11.868;2024-01-27T16:10:07;3.17;;;1.93;;
6358;SDS011;3212;51.460;11.868;2024-01-27T16:13:30;5.83;;;2.00;;
6358;SDS011;3212;51.460;11.868;2024-01-27T16:16:53;8.60;;;2.40;;
6358;SDS011;3212;51.460;11.868;2024-01-27T16:20:15;8.80;;;2.60;;
6358;SDS011;3212;51.460;11.868;2024-01-27T16:23:38;11.73;;;2.80;;
6358;SDS011;3212;51.460;11.868;2024-01-27T16:27:02;9.57;;;2.83;;
6358;SDS011;3212;51.460;11.868;2024-01-27T16:30:24;7.00;;;2.63;;
6358;SDS011;3212;51.460;11.868;2024-01-27T16:33:46;13.30;;;2.90;;
6358;SDS011;3212;51.460;11.868;2024-01-27T16:37:10;8.60;;;3.70;;
6358;SDS011;3212;51.460;11.868;2024-01-27T16:40:32;8.63;;;3.10;;
6358;SDS011;3212;51.460;11.868;2024-01-27T16:43:55;9.17;;;3.30;;
6358;SDS011;3212;51.460;11.868;2024-01-27T16:47:18;8.17;;;2.90;;
6358;SDS011;3212;51.460;11.868;2024-01-27T16:50:40;6.93;;;3.00;;
6358;SDS011;3212;51.460;11.868;2024-01-27T16:54:03;8.00;;;2.83;;
6358;SDS011;3212;51.460;11.868;2024-01-27T16:57:26;6.70;;;2.83;;
6358;SDS011;3212;51.460;11.868;2024-01-27T17:00:48;10.20;;;3.93;;
6358;SDS011;3212;51.460;11.868;2024-01-27T17:04:11;7.57;;;3.33;;
6358;SDS011;3212;51.460;11.868;2024-01-27T17:07:33;6.80;;;2.07;;
6358;SDS011;3212;51.460;11.868;2024-01-27T17:10:56;6.00;;;2.83;;
6358;SDS011;3212;51.460;11.868;2024-01-27T17:14:19;7.20;;;2.60;;
6358;SDS011;3212;51.460;11.868;2024-01-27T17:17:42;5.15;;;3.10;;
6358;SDS011;3212;51.460;11.868;2024-01-27T17:21:05;13.50;;;3.00;;
6358;SDS011;3212;51.460;11.868;2024-01-27T17:24:28;9.17;;;3.67;;
6358;SDS011;3212;51.460;11.868;2024-01-27T17:27:51;5.83;;;3.40;;
6358;SDS011;3212;51.460;11.868;2024-01-27T17:31:14;11.97;;;3.43;;
6358;SDS011;3212;51.460;11.868;2024-01-27T17:34:36;8.70;;;3.80;;
6358;SDS011;3212;51.460;11.868;2024-01-27T17:37:59;8.20;;;3.40;;
6358;SDS011;3212;51.460;11.868;2024-01-27T17:41:22;11.97;;;3.40;;
6358;SDS011;3212;51.460;11.868;2024-01-27T17:44:47;9.27;;;3.57;;
6358;SDS011;3212;51.460;11.868;2024-01-27T17:48:12;8.87;;;3.67;;
6358;SDS011;3212;51.460;11.868;2024-01-27T17:51:33;10.47;;;3.43;;
6358;SDS011;3212;51.460;11.868;2024-01-27T17:54:56;7.93;;;3.33;;
6358;SDS011;3212;51.460;11.868;2024-01-27T17:58:18;10.00;;;3.97;;
6358;SDS011;3212;51.460;11.868;2024-01-27T18:01:41;13.43;;;3.37;;
6358;SDS011;3212;51.460;11.868;2024-01-27T18:05:04;12.83;;;4.30;;
6358;SDS011;3212;51.460;11.868;2024-01-27T18:08:28;11.10;;;3.62;;
6358;SDS011;3212;51.460;11.868;2024-01-27T18:11:50;15.37;;;5.60;;
6358;SDS011;3212;51.460;11.868;2024-01-27T18:15:12;12.13;;;6.60;;
6358;SDS011;3212;51.460;11.868;2024-01-27T18:18:35;10.97;;;5.63;;
6358;SDS011;3212;51.460;11.868;2024-01-27T18:21:57;13.50;;;5.37;;
6358;SDS011;3212;51.460;11.868;2024-01-27T18:25:20;10.13;;;4.53;;
6358;SDS011;3212;51.460;11.868;2024-01-27T18:28:43;13.03;;;4.40;;
6358;SDS011;3212;51.460;11.868;2024-01-27T18:32:05;10.00;;;4.17;;
6358;SDS011;3212;51.460;11.868;2024-01-27T18:35:28;11.77;;;4.90;;
6358;SDS011;3212;51.460;11.868;2024-01-27T18:38:51;13.60;;;4.97;;
6358;SDS011;3212;51.460;11.868;2024-01-27T18:42:13;9.38;;;4.30;;
6358;SDS011;3212;51.460;11.868;2024-01-27T18:45:36;13.95;;;4.50;;
6358;SDS011;3212;51.460;11.868;2024-01-27T18:48:59;10.50;;;4.67;;
6358;SDS011;3212;51.460;11.868;2024-01-27T18:52:22;12.83;;;4.70;;
6358;SDS011;3212;51.460;11.868;2024-01-27T18:55:47;8.93;;;4.60;;
6358;SDS011;3212;51.460;11.868;2024-01-27T18:59:09;10.60;;;3.80;;
6358;SDS011;3212;51.460;11.868;2024-01-27T19:02:31;13.13;;;4.07;;
6358;SDS011;3212;51.460;11.868;2024-01-27T19:05:54;8.03;;;4.47;;
6358;SDS011;3212;51.460;11.868;2024-01-27T19:09:17;10.80;;;4.93;;
6358;SDS011;3212;51.460;11.868;2024-01-27T19:12:39;10.03;;;5.40;;
6358;SDS011;3212;51.460;11.868;2024-01-27T19:16:02;14.97;;;5.23;;
6358;SDS011;3212;51.460;11.868;2024-01-27T19:19:25;13.13;;;4.70;;
6358;SDS011;3212;51.460;11.868;2024-01-27T19:22:47;12.27;;;4.27;;
6358;SDS011;3212;51.460;11.868;2024-01-27T19:26:10;10.63;;;4.27;;
6358;SDS011;3212;51.460;11.868;2024-01-27T19:29:32;11.27;;;4.43;;
6358;SDS011;3212;51.460;11.868;2024-01-27T19:32:55;11.40;;;3.83;;
6358;SDS011;3212;51.460;11.868;2024-01-27T19:36:18;10.40;;;4.20;;
6358;SDS011;3212;51.460;11.868;2024-01-27T19:39:40;15.60;;;5.10;;
6358;SDS011;3212;51.460;11.868;2024-01-27T19:43:02;14.53;;;4.40;;
6358;SDS011;3212;51.460;11.868;2024-01-27T19:46:24;19.80;;;5.57;;
6358;SDS011;3212;51.460;11.868;2024-01-27T19:49:47;8.37;;;4.07;;
6358;SDS011;3212;51.460;11.868;2024-01-27T19:53:09;13.13;;;4.80;;
6358;SDS011;3212;51.460;11.868;2024-01-27T19:56:32;13.53;;;4.50;;
6358;SDS011;3212;51.460;11.868;2024-01-27T19:59:54;8.63;;;4.60;;
6358;SDS011;3212;51.460;11.868;2024-01-27T20:03:17;9.37;;;3.90;;
6358;SDS011;3212;51.460;11.868;2024-01-27T20:06:40;14.07;;;3.87;;
6358;SDS011;3212;51.460;11.868;2024-01-27T20:10:02;7.60;;;4.00;;
6358;SDS011;3212;51.460;11.868;2024-01-27T20:13:26;14.33;;;4.40;;
6358;SDS011;3212;51.460;11.868;2024-01-27T20:16:48;9.30;;;4.20;;
6358;SDS011;3212;51.460;11.868;2024-01-27T20:20:11;11.33;;;3.90;;
6358;SDS011;3212;51.460;11.868;2024-01-27T20:23:33;10.73;;;3.23;;
6358;SDS011;3212;51.460;11.868;2024-01-27T20:26:56;16.77;;;3.10;;
6358;SDS011;3212;51.460;11.868;2024-01-27T20:30:19;6.10;;;2.93;;
6358;SDS011;3212;51.460;11.868;2024-01-27T20:33:42;11.20;;;3.80;;